sensor_id;sensor_type;location;lat;lon;timestamp;temperature;humidity
6106;DHT22;3083;51.508;7.966;2022-07-29T00:00:08;18.00;99.90
6106;DHT22;3083;51.508;7.966;2022-07-29T00:02:36;18.00;99.90
6106;DHT22;3083;51.508;7.966;2022-07-29T00:05:05;18.00;99.90
6106;DHT22;3083;51.508;7.966;2022-07-29T00:07:32;18.00;99.90
6106;DHT22;3083;51.508;7.966;2022-07-29T00:09:59;18.00;99.90
6106;DHT22;3083;51.508;7.966;2022-07-29T00:12:26;18.00;99.90
6106;DHT22;3083;51.508;7.966;2022-07-29T00:14:53;18.00;99.90
6106;DHT22;3083;51.508;7.966;2022-07-29T00:17:20;18.00;99.90
6106;DHT22;3083;51.508;7.966;2022-07-29T00:19:47;18.00;99.90
6106;DHT22;3083;51.508;7.966;2022-07-29T00:22:16;18.00;99.90
6106;DHT22;3083;51.508;7.966;2022-07-29T00:24:43;18.00;99.90
6106;DHT22;3083;51.508;7.966;2022-07-29T00:27:10;18.00;99.90
6106;DHT22;3083;51.508;7.966;2022-07-29T00:29:36;17.90;99.90
6106;DHT22;3083;51.508;7.966;2022-07-29T00:32:04;17.90;99.90
6106;DHT22;3083;51.508;7.966;2022-07-29T00:34:31;17.90;99.90
6106;DHT22;3083;51.508;7.966;2022-07-29T00:37:17;17.90;99.90
6106;DHT22;3083;51.508;7.966;2022-07-29T00:39:44;17.90;99.90
6106;DHT22;3083;51.508;7.966;2022-07-29T00:42:11;17.90;99.90
6106;DHT22;3083;51.508;7.966;2022-07-29T00:44:38;17.90;99.90
6106;DHT22;3083;51.508;7.966;2022-07-29T00:47:05;17.90;99.90
6106;DHT22;3083;51.508;7.966;2022-07-29T00:49:32;17.80;99.90
6106;DHT22;3083;51.508;7.966;2022-07-29T00:52:00;17.80;99.90
6106;DHT22;3083;51.508;7.966;2022-07-29T00:54:29;17.70;99.90
6106;DHT22;3083;51.508;7.966;2022-07-29T00:56:58;17.70;99.90
6106;DHT22;3083;51.508;7.966;2022-07-29T00:59:25;17.70;99.90
6106;DHT22;3083;51.508;7.966;2022-07-29T01:01:53;17.70;99.90
6106;DHT22;3083;51.508;7.966;2022-07-29T01:04:20;17.60;99.90
6106;DHT22;3083;51.508;7.966;2022-07-29T01:06:48;17.60;99.90
6106;DHT22;3083;51.508;7.966;2022-07-29T01:09:15;17.50;99.90
6106;DHT22;3083;51.508;7.966;2022-07-29T01:11:46;17.50;99.90
6106;DHT22;3083;51.508;7.966;2022-07-29T01:14:14;17.40;99.90
6106;DHT22;3083;51.508;7.966;2022-07-29T01:16:45;17.30;99.90
6106;DHT22;3083;51.508;7.966;2022-07-29T01:19:30;17.20;99.90
6106;DHT22;3083;51.508;7.966;2022-07-29T01:22:14;17.20;99.90
6106;DHT22;3083;51.508;7.966;2022-07-29T01:28:15;17.00;99.90
6106;DHT22;3083;51.508;7.966;2022-07-29T01:30:48;17.00;99.90
6106;DHT22;3083;51.508;7.966;2022-07-29T01:33:17;16.90;99.90
6106;DHT22;3083;51.508;7.966;2022-07-29T01:36:02;16.80;99.90
6106;DHT22;3083;51.508;7.966;2022-07-29T01:38:31;16.80;99.90
6106;DHT22;3083;51.508;7.966;2022-07-29T01:41:05;16.70;99.90
6106;DHT22;3083;51.508;7.966;2022-07-29T01:43:49;16.70;99.90
6106;DHT22;3083;51.508;7.966;2022-07-29T01:46:21;16.70;99.90
6106;DHT22;3083;51.508;7.966;2022-07-29T01:48:54;16.70;99.90
6106;DHT22;3083;51.508;7.966;2022-07-29T01:51:31;16.70;99.90
6106;DHT22;3083;51.508;7.966;2022-07-29T01:54:04;16.70;99.90
6106;DHT22;3083;51.508;7.966;2022-07-29T01:56:35;16.70;99.90
6106;DHT22;3083;51.508;7.966;2022-07-29T01:59:05;16.70;99.90
6106;DHT22;3083;51.508;7.966;2022-07-29T02:01:35;16.60;99.90
6106;DHT22;3083;51.508;7.966;2022-07-29T02:04:04;16.60;99.90
6106;DHT22;3083;51.508;7.966;2022-07-29T02:06:33;16.60;99.90
6106;DHT22;3083;51.508;7.966;2022-07-29T02:09:02;16.60;99.90
6106;DHT22;3083;51.508;7.966;2022-07-29T02:11:31;16.60;99.90
6106;DHT22;3083;51.508;7.966;2022-07-29T02:14:00;16.60;99.90
6106;DHT22;3083;51.508;7.966;2022-07-29T02:16:30;16.60;99.90
6106;DHT22;3083;51.508;7.966;2022-07-29T02:19:00;16.50;99.90
6106;DHT22;3083;51.508;7.966;2022-07-29T02:21:29;16.50;99.90
6106;DHT22;3083;51.508;7.966;2022-07-29T02:23:59;16.50;99.90
6106;DHT22;3083;51.508;7.966;2022-07-29T02:26:28;16.50;99.90
6106;DHT22;3083;51.508;7.966;2022-07-29T02:28:57;16.50;99.90
6106;DHT22;3083;51.508;7.966;2022-07-29T02:31:30;16.50;99.90
6106;DHT22;3083;51.508;7.966;2022-07-29T02:34:01;16.40;99.90
6106;DHT22;3083;51.508;7.966;2022-07-29T02:36:30;16.40;99.90
6106;DHT22;3083;51.508;7.966;2022-07-29T02:38:58;16.40;99.90
6106;DHT22;3083;51.508;7.966;2022-07-29T02:41:29;16.40;99.90
6106;DHT22;3083;51.508;7.966;2022-07-29T02:44:01;16.40;99.90
6106;DHT22;3083;51.508;7.966;2022-07-29T02:46:32;16.40;99.90
6106;DHT22;3083;51.508;7.966;2022-07-29T02:49:09;16.30;99.90
6106;DHT22;3083;51.508;7.966;2022-07-29T02:51:43;16.30;99.90
6106;DHT22;3083;51.508;7.966;2022-07-29T02:54:18;16.20;99.90
6106;DHT22;3083;51.508;7.966;2022-07-29T02:56:46;16.20;99.90
6106;DHT22;3083;51.508;7.966;2022-07-29T02:59:17;16.20;99.90
6106;DHT22;3083;51.508;7.966;2022-07-29T03:01:48;16.20;99.90
6106;DHT22;3083;51.508;7.966;2022-07-29T03:04:17;16.20;99.90
6106;DHT22;3083;51.508;7.966;2022-07-29T03:06:46;16.20;99.90
6106;DHT22;3083;51.508;7.966;2022-07-29T03:09:14;16.20;99.90
6106;DHT22;3083;51.508;7.966;2022-07-29T03:11:42;16.20;99.90
6106;DHT22;3083;51.508;7.966;2022-07-29T03:14:10;16.20;99.90
6106;DHT22;3083;51.508;7.966;2022-07-29T03:16:38;16.20;99.90
6106;DHT22;3083;51.508;7.966;2022-07-29T03:19:06;16.20;99.90
6106;DHT22;3083;51.508;7.966;2022-07-29T03:21:34;16.20;99.90
6106;DHT22;3083;51.508;7.966;2022-07-29T03:24:01;16.20;99.90
6106;DHT22;3083;51.508;7.966;2022-07-29T03:26:28;16.20;99.90
6106;DHT22;3083;51.508;7.966;2022-07-29T03:28:55;16.30;99.90
6106;DHT22;3083;51.508;7.966;2022-07-29T03:31:22;16.20;99.90
6106;DHT22;3083;51.508;7.966;2022-07-29T03:33:49;16.20;99.90
6106;DHT22;3083;51.508;7.966;2022-07-29T03:36:16;16.20;99.90
6106;DHT22;3083;51.508;7.966;2022-07-29T03:38:45;16.10;99.90
6106;DHT22;3083;51.508;7.966;2022-07-29T03:41:14;16.10;99.90
6106;DHT22;3083;51.508;7.966;2022-07-29T03:43:43;16.10;99.90
6106;DHT22;3083;51.508;7.966;2022-07-29T03:46:11;16.10;99.90
6106;DHT22;3083;51.508;7.966;2022-07-29T03:48:44;16.20;99.90
6106;DHT22;3083;51.508;7.966;2022-07-29T03:51:13;16.20;99.90
6106;DHT22;3083;51.508;7.966;2022-07-29T03:53:40;16.20;99.90
6106;DHT22;3083;51.508;7.966;2022-07-29T03:56:10;16.20;99.90
6106;DHT22;3083;51.508;7.966;2022-07-29T03:58:38;16.20;99.90
6106;DHT22;3083;51.508;7.966;2022-07-29T04:01:06;16.20;99.90
6106;DHT22;3083;51.508;7.966;2022-07-29T04:03:34;16.10;99.90
6106;DHT22;3083;51.508;7.966;2022-07-29T04:06:03;16.10;99.90
6106;DHT22;3083;51.508;7.966;2022-07-29T04:08:31;16.10;99.90
6106;DHT22;3083;51.508;7.966;2022-07-29T04:10:58;16.10;99.90
6106;DHT22;3083;51.508;7.966;2022-07-29T04:13:27;16.10;99.90
6106;DHT22;3083;51.508;7.966;2022-07-29T04:15:54;16.10;99.90
6106;DHT22;3083;51.508;7.966;2022-07-29T04:18:21;16.20;99.90
6106;DHT22;3083;51.508;7.966;2022-07-29T04:20:48;16.20;99.90
6106;DHT22;3083;51.508;7.966;2022-07-29T04:23:15;16.10;99.90
6106;DHT22;3083;51.508;7.966;2022-07-29T04:25:42;16.10;99.90
6106;DHT22;3083;51.508;7.966;2022-07-29T04:28:10;16.10;99.90
6106;DHT22;3083;51.508;7.966;2022-07-29T04:30:38;16.00;99.90
6106;DHT22;3083;51.508;7.966;2022-07-29T04:33:06;16.00;99.90
6106;DHT22;3083;51.508;7.966;2022-07-29T04:35:35;16.10;99.90
6106;DHT22;3083;51.508;7.966;2022-07-29T04:38:03;16.10;99.90
6106;DHT22;3083;51.508;7.966;2022-07-29T04:40:30;16.10;99.90
6106;DHT22;3083;51.508;7.966;2022-07-29T04:42:59;16.10;99.90
6106;DHT22;3083;51.508;7.966;2022-07-29T04:45:26;16.10;99.90
6106;DHT22;3083;51.508;7.966;2022-07-29T04:47:54;16.10;99.90
6106;DHT22;3083;51.508;7.966;2022-07-29T04:50:22;16.10;99.90
6106;DHT22;3083;51.508;7.966;2022-07-29T04:52:49;16.20;99.90
6106;DHT22;3083;51.508;7.966;2022-07-29T04:55:16;16.30;99.90
6106;DHT22;3083;51.508;7.966;2022-07-29T04:57:43;16.40;99.90
6106;DHT22;3083;51.508;7.966;2022-07-29T05:00:11;16.40;99.90
6106;DHT22;3083;51.508;7.966;2022-07-29T05:02:38;16.50;99.90
6106;DHT22;3083;51.508;7.966;2022-07-29T05:05:07;16.50;99.90
6106;DHT22;3083;51.508;7.966;2022-07-29T05:07:34;16.60;99.90
6106;DHT22;3083;51.508;7.966;2022-07-29T05:10:02;16.70;99.90
6106;DHT22;3083;51.508;7.966;2022-07-29T05:12:29;16.70;99.90
6106;DHT22;3083;51.508;7.966;2022-07-29T05:14:56;16.80;99.90
6106;DHT22;3083;51.508;7.966;2022-07-29T05:17:23;16.80;99.90
6106;DHT22;3083;51.508;7.966;2022-07-29T05:19:50;16.90;99.90
6106;DHT22;3083;51.508;7.966;2022-07-29T05:22:19;16.90;99.90
6106;DHT22;3083;51.508;7.966;2022-07-29T05:24:46;16.90;99.90
6106;DHT22;3083;51.508;7.966;2022-07-29T05:27:13;17.00;99.90
6106;DHT22;3083;51.508;7.966;2022-07-29T05:29:40;17.00;99.90
6106;DHT22;3083;51.508;7.966;2022-07-29T05:32:07;17.00;99.90
6106;DHT22;3083;51.508;7.966;2022-07-29T05:34:34;17.00;99.90
6106;DHT22;3083;51.508;7.966;2022-07-29T05:37:01;17.00;99.90
6106;DHT22;3083;51.508;7.966;2022-07-29T05:39:30;17.10;99.90
6106;DHT22;3083;51.508;7.966;2022-07-29T05:41:57;17.10;99.90
6106;DHT22;3083;51.508;7.966;2022-07-29T05:44:24;17.10;99.90
6106;DHT22;3083;51.508;7.966;2022-07-29T05:46:53;17.10;99.90
6106;DHT22;3083;51.508;7.966;2022-07-29T05:49:21;17.10;99.90
6106;DHT22;3083;51.508;7.966;2022-07-29T05:51:48;17.20;99.90
6106;DHT22;3083;51.508;7.966;2022-07-29T05:54:16;17.20;99.90
6106;DHT22;3083;51.508;7.966;2022-07-29T05:56:44;17.20;99.90
6106;DHT22;3083;51.508;7.966;2022-07-29T05:59:12;17.30;99.90
6106;DHT22;3083;51.508;7.966;2022-07-29T06:01:41;17.30;99.90
6106;DHT22;3083;51.508;7.966;2022-07-29T06:04:13;17.40;99.90
6106;DHT22;3083;51.508;7.966;2022-07-29T06:06:40;17.50;99.90
6106;DHT22;3083;51.508;7.966;2022-07-29T06:09:07;17.60;99.90
6106;DHT22;3083;51.508;7.966;2022-07-29T06:11:34;17.70;99.90
6106;DHT22;3083;51.508;7.966;2022-07-29T06:14:02;17.80;99.90
6106;DHT22;3083;51.508;7.966;2022-07-29T06:16:29;17.90;99.90
6106;DHT22;3083;51.508;7.966;2022-07-29T06:18:56;18.00;99.90
6106;DHT22;3083;51.508;7.966;2022-07-29T06:21:23;18.10;99.90
6106;DHT22;3083;51.508;7.966;2022-07-29T06:23:50;18.20;99.90
6106;DHT22;3083;51.508;7.966;2022-07-29T06:26:17;18.20;99.90
6106;DHT22;3083;51.508;7.966;2022-07-29T06:28:44;18.20;99.90
6106;DHT22;3083;51.508;7.966;2022-07-29T06:31:12;18.30;99.90
6106;DHT22;3083;51.508;7.966;2022-07-29T06:33:39;18.40;99.90
6106;DHT22;3083;51.508;7.966;2022-07-29T06:36:07;18.40;99.90
6106;DHT22;3083;51.508;7.966;2022-07-29T06:38:34;18.50;99.90
6106;DHT22;3083;51.508;7.966;2022-07-29T06:41:01;18.60;99.90
6106;DHT22;3083;51.508;7.966;2022-07-29T06:43:31;18.70;99.90
6106;DHT22;3083;51.508;7.966;2022-07-29T06:46:03;18.70;99.90
6106;DHT22;3083;51.508;7.966;2022-07-29T06:48:33;18.70;99.90
6106;DHT22;3083;51.508;7.966;2022-07-29T06:51:02;18.80;99.90
6106;DHT22;3083;51.508;7.966;2022-07-29T06:53:29;18.80;99.90
6106;DHT22;3083;51.508;7.966;2022-07-29T06:55:57;18.90;99.90
6106;DHT22;3083;51.508;7.966;2022-07-29T06:58:24;18.90;99.90
6106;DHT22;3083;51.508;7.966;2022-07-29T07:00:51;18.90;99.90
6106;DHT22;3083;51.508;7.966;2022-07-29T07:03:19;18.90;99.90
6106;DHT22;3083;51.508;7.966;2022-07-29T07:05:47;18.90;99.90
6106;DHT22;3083;51.508;7.966;2022-07-29T07:08:15;19.00;99.90
6106;DHT22;3083;51.508;7.966;2022-07-29T07:10:42;19.10;99.90
6106;DHT22;3083;51.508;7.966;2022-07-29T07:13:09;19.20;99.90
6106;DHT22;3083;51.508;7.966;2022-07-29T07:15:37;19.30;99.90
6106;DHT22;3083;51.508;7.966;2022-07-29T07:18:04;19.40;99.90
6106;DHT22;3083;51.508;7.966;2022-07-29T07:20:32;19.50;99.90
6106;DHT22;3083;51.508;7.966;2022-07-29T07:23:00;19.70;99.90
6106;DHT22;3083;51.508;7.966;2022-07-29T07:25:27;19.70;99.90
6106;DHT22;3083;51.508;7.966;2022-07-29T07:27:55;19.80;99.90
6106;DHT22;3083;51.508;7.966;2022-07-29T07:30:22;19.90;99.90
6106;DHT22;3083;51.508;7.966;2022-07-29T07:32:49;20.00;99.90
6106;DHT22;3083;51.508;7.966;2022-07-29T07:35:16;20.10;99.90
6106;DHT22;3083;51.508;7.966;2022-07-29T07:37:43;20.20;99.90
6106;DHT22;3083;51.508;7.966;2022-07-29T07:40:12;20.30;99.90
6106;DHT22;3083;51.508;7.966;2022-07-29T07:42:39;20.40;99.90
6106;DHT22;3083;51.508;7.966;2022-07-29T07:45:07;20.50;99.90
6106;DHT22;3083;51.508;7.966;2022-07-29T07:47:35;20.70;99.90
6106;DHT22;3083;51.508;7.966;2022-07-29T07:50:03;20.80;99.90
6106;DHT22;3083;51.508;7.966;2022-07-29T07:52:31;21.10;99.90
6106;DHT22;3083;51.508;7.966;2022-07-29T07:54:58;21.30;99.90
6106;DHT22;3083;51.508;7.966;2022-07-29T07:57:26;21.50;99.90
6106;DHT22;3083;51.508;7.966;2022-07-29T07:59:53;21.50;99.90
6106;DHT22;3083;51.508;7.966;2022-07-29T08:02:24;21.40;99.90
6106;DHT22;3083;51.508;7.966;2022-07-29T08:04:51;21.40;99.90
6106;DHT22;3083;51.508;7.966;2022-07-29T08:07:18;21.40;99.90
6106;DHT22;3083;51.508;7.966;2022-07-29T08:09:45;21.40;99.90
6106;DHT22;3083;51.508;7.966;2022-07-29T08:12:12;21.40;99.90
6106;DHT22;3083;51.508;7.966;2022-07-29T08:14:41;21.30;99.90
6106;DHT22;3083;51.508;7.966;2022-07-29T08:17:09;21.30;99.90
6106;DHT22;3083;51.508;7.966;2022-07-29T08:19:36;21.30;99.90
6106;DHT22;3083;51.508;7.966;2022-07-29T08:22:08;21.30;99.90
6106;DHT22;3083;51.508;7.966;2022-07-29T08:24:35;21.40;99.90
6106;DHT22;3083;51.508;7.966;2022-07-29T08:27:18;21.50;99.90
6106;DHT22;3083;51.508;7.966;2022-07-29T08:29:48;21.60;99.90
6106;DHT22;3083;51.508;7.966;2022-07-29T08:32:15;21.80;99.90
6106;DHT22;3083;51.508;7.966;2022-07-29T08:34:42;22.00;99.90
6106;DHT22;3083;51.508;7.966;2022-07-29T08:37:12;22.30;99.90
6106;DHT22;3083;51.508;7.966;2022-07-29T08:39:39;22.60;99.90
6106;DHT22;3083;51.508;7.966;2022-07-29T08:42:09;22.80;99.90
6106;DHT22;3083;51.508;7.966;2022-07-29T08:44:37;23.00;99.90
6106;DHT22;3083;51.508;7.966;2022-07-29T08:47:21;23.30;99.90
6106;DHT22;3083;51.508;7.966;2022-07-29T08:49:48;23.60;99.90
6106;DHT22;3083;51.508;7.966;2022-07-29T08:52:16;23.80;99.90
6106;DHT22;3083;51.508;7.966;2022-07-29T08:54:43;24.00;99.90
6106;DHT22;3083;51.508;7.966;2022-07-29T08:57:13;24.30;99.90
6106;DHT22;3083;51.508;7.966;2022-07-29T08:59:42;24.80;99.90
6106;DHT22;3083;51.508;7.966;2022-07-29T09:02:15;25.10;99.90
6106;DHT22;3083;51.508;7.966;2022-07-29T09:05:00;25.40;99.90
6106;DHT22;3083;51.508;7.966;2022-07-29T09:07:32;25.70;99.90
6106;DHT22;3083;51.508;7.966;2022-07-29T09:10:01;25.90;99.90
6106;DHT22;3083;51.508;7.966;2022-07-29T09:12:29;25.80;99.90
6106;DHT22;3083;51.508;7.966;2022-07-29T09:14:57;25.80;99.90
6106;DHT22;3083;51.508;7.966;2022-07-29T09:17:39;25.70;99.90
6106;DHT22;3083;51.508;7.966;2022-07-29T09:20:10;25.90;99.90
6106;DHT22;3083;51.508;7.966;2022-07-29T09:22:38;26.10;99.90
6106;DHT22;3083;51.508;7.966;2022-07-29T09:25:05;26.60;99.90
6106;DHT22;3083;51.508;7.966;2022-07-29T09:27:33;27.00;99.90
6106;DHT22;3083;51.508;7.966;2022-07-29T09:30:02;27.30;99.90
6106;DHT22;3083;51.508;7.966;2022-07-29T09:32:30;27.50;99.90
6106;DHT22;3083;51.508;7.966;2022-07-29T09:35:18;27.80;99.90
6106;DHT22;3083;51.508;7.966;2022-07-29T09:37:46;27.80;99.90
6106;DHT22;3083;51.508;7.966;2022-07-29T09:40:16;27.80;99.90
6106;DHT22;3083;51.508;7.966;2022-07-29T09:42:45;28.00;99.90
6106;DHT22;3083;51.508;7.966;2022-07-29T09:45:12;28.40;99.90
6106;DHT22;3083;51.508;7.966;2022-07-29T09:47:45;28.50;99.90
6106;DHT22;3083;51.508;7.966;2022-07-29T09:50:15;28.70;99.90
6106;DHT22;3083;51.508;7.966;2022-07-29T09:52:48;28.80;99.90
6106;DHT22;3083;51.508;7.966;2022-07-29T09:55:16;28.70;99.90
6106;DHT22;3083;51.508;7.966;2022-07-29T09:58:16;28.90;99.90
6106;DHT22;3083;51.508;7.966;2022-07-29T10:00:44;29.40;99.90
6106;DHT22;3083;51.508;7.966;2022-07-29T10:03:12;29.80;99.90
6106;DHT22;3083;51.508;7.966;2022-07-29T10:05:39;30.20;99.90
6106;DHT22;3083;51.508;7.966;2022-07-29T10:08:09;30.20;99.90
6106;DHT22;3083;51.508;7.966;2022-07-29T10:10:40;30.10;99.90
6106;DHT22;3083;51.508;7.966;2022-07-29T10:13:09;30.00;99.90
6106;DHT22;3083;51.508;7.966;2022-07-29T10:15:37;29.80;99.90
6106;DHT22;3083;51.508;7.966;2022-07-29T10:18:06;29.60;99.90
6106;DHT22;3083;51.508;7.966;2022-07-29T10:20:34;29.50;99.90
6106;DHT22;3083;51.508;7.966;2022-07-29T10:23:02;29.60;99.90
6106;DHT22;3083;51.508;7.966;2022-07-29T10:25:31;29.50;99.90
6106;DHT22;3083;51.508;7.966;2022-07-29T10:27:58;29.40;99.90
6106;DHT22;3083;51.508;7.966;2022-07-29T10:30:26;29.30;99.90
6106;DHT22;3083;51.508;7.966;2022-07-29T10:33:15;29.00;99.90
6106;DHT22;3083;51.508;7.966;2022-07-29T10:36:00;29.00;99.90
6106;DHT22;3083;51.508;7.966;2022-07-29T10:38:44;28.90;99.90
6106;DHT22;3083;51.508;7.966;2022-07-29T10:41:23;28.80;99.90
6106;DHT22;3083;51.508;7.966;2022-07-29T10:43:58;28.80;99.90
6106;DHT22;3083;51.508;7.966;2022-07-29T10:46:27;28.70;99.90
6106;DHT22;3083;51.508;7.966;2022-07-29T10:49:12;28.60;99.90
6106;DHT22;3083;51.508;7.966;2022-07-29T10:52:00;28.40;99.90
6106;DHT22;3083;51.508;7.966;2022-07-29T10:54:44;28.40;99.90
6106;DHT22;3083;51.508;7.966;2022-07-29T10:57:28;28.60;99.90
6106;DHT22;3083;51.508;7.966;2022-07-29T11:00:30;29.00;99.90
6106;DHT22;3083;51.508;7.966;2022-07-29T11:03:00;29.40;99.90
6106;DHT22;3083;51.508;7.966;2022-07-29T11:05:53;29.50;99.90
6106;DHT22;3083;51.508;7.966;2022-07-29T11:08:24;29.50;99.90
6106;DHT22;3083;51.508;7.966;2022-07-29T11:13:50;29.90;99.90
6106;DHT22;3083;51.508;7.966;2022-07-29T11:16:20;29.90;99.90
6106;DHT22;3083;51.508;7.966;2022-07-29T11:19:19;29.80;99.90
6106;DHT22;3083;51.508;7.966;2022-07-29T11:21:46;29.80;99.90
6106;DHT22;3083;51.508;7.966;2022-07-29T11:24:16;29.70;99.90
6106;DHT22;3083;51.508;7.966;2022-07-29T11:26:43;29.30;99.90
6106;DHT22;3083;51.508;7.966;2022-07-29T11:29:20;29.00;99.90
6106;DHT22;3083;51.508;7.966;2022-07-29T11:31:49;28.90;99.90
6106;DHT22;3083;51.508;7.966;2022-07-29T11:34:24;28.80;99.90
6106;DHT22;3083;51.508;7.966;2022-07-29T11:37:19;28.70;99.90
6106;DHT22;3083;51.508;7.966;2022-07-29T11:42:47;28.40;99.90
6106;DHT22;3083;51.508;7.966;2022-07-29T11:45:17;28.30;99.90
6106;DHT22;3083;51.508;7.966;2022-07-29T11:47:53;28.20;99.90
6106;DHT22;3083;51.508;7.966;2022-07-29T11:50:32;28.10;99.90
6106;DHT22;3083;51.508;7.966;2022-07-29T11:53:00;28.10;99.90
6106;DHT22;3083;51.508;7.966;2022-07-29T11:55:27;28.00;99.90
6106;DHT22;3083;51.508;7.966;2022-07-29T11:57:58;27.90;99.90
6106;DHT22;3083;51.508;7.966;2022-07-29T12:00:29;27.80;99.90
6106;DHT22;3083;51.508;7.966;2022-07-29T12:02:57;27.60;99.90
6106;DHT22;3083;51.508;7.966;2022-07-29T12:05:38;27.40;99.90
6106;DHT22;3083;51.508;7.966;2022-07-29T12:08:12;27.40;99.90
6106;DHT22;3083;51.508;7.966;2022-07-29T12:10:42;27.30;99.90
6106;DHT22;3083;51.508;7.966;2022-07-29T12:13:10;27.20;99.90
6106;DHT22;3083;51.508;7.966;2022-07-29T12:15:41;27.00;99.90
6106;DHT22;3083;51.508;7.966;2022-07-29T12:18:16;26.80;99.90
6106;DHT22;3083;51.508;7.966;2022-07-29T12:20:44;26.80;99.90
6106;DHT22;3083;51.508;7.966;2022-07-29T12:23:11;26.80;99.90
6106;DHT22;3083;51.508;7.966;2022-07-29T12:25:40;26.80;99.90
6106;DHT22;3083;51.508;7.966;2022-07-29T12:28:09;26.80;99.90
6106;DHT22;3083;51.508;7.966;2022-07-29T12:30:44;26.90;99.90
6106;DHT22;3083;51.508;7.966;2022-07-29T12:33:17;26.90;99.90
6106;DHT22;3083;51.508;7.966;2022-07-29T12:35:47;26.90;99.90
6106;DHT22;3083;51.508;7.966;2022-07-29T12:38:17;26.90;99.90
6106;DHT22;3083;51.508;7.966;2022-07-29T12:40:45;26.90;99.90
6106;DHT22;3083;51.508;7.966;2022-07-29T12:43:20;26.90;99.90
6106;DHT22;3083;51.508;7.966;2022-07-29T12:45:50;26.90;99.90
6106;DHT22;3083;51.508;7.966;2022-07-29T12:48:33;26.90;99.90
6106;DHT22;3083;51.508;7.966;2022-07-29T12:51:03;26.90;99.90
6106;DHT22;3083;51.508;7.966;2022-07-29T12:53:41;26.90;99.90
6106;DHT22;3083;51.508;7.966;2022-07-29T12:56:17;26.90;99.90
6106;DHT22;3083;51.508;7.966;2022-07-29T12:58:45;26.90;99.90
6106;DHT22;3083;51.508;7.966;2022-07-29T13:01:16;27.00;99.90
6106;DHT22;3083;51.508;7.966;2022-07-29T13:03:51;27.00;99.90
6106;DHT22;3083;51.508;7.966;2022-07-29T13:06:33;27.00;99.90
6106;DHT22;3083;51.508;7.966;2022-07-29T13:09:05;27.00;99.90
6106;DHT22;3083;51.508;7.966;2022-07-29T13:11:35;26.90;99.90
6106;DHT22;3083;51.508;7.966;2022-07-29T13:14:04;26.80;99.90
6106;DHT22;3083;51.508;7.966;2022-07-29T13:16:32;26.80;99.90
6106;DHT22;3083;51.508;7.966;2022-07-29T13:19:08;26.60;99.90
6106;DHT22;3083;51.508;7.966;2022-07-29T13:21:36;26.50;99.90
6106;DHT22;3083;51.508;7.966;2022-07-29T13:24:08;26.50;99.90
6106;DHT22;3083;51.508;7.966;2022-07-29T13:26:40;26.50;99.90
6106;DHT22;3083;51.508;7.966;2022-07-29T13:29:07;26.40;99.90
6106;DHT22;3083;51.508;7.966;2022-07-29T13:31:37;26.40;99.90
6106;DHT22;3083;51.508;7.966;2022-07-29T13:34:08;26.30;99.90
6106;DHT22;3083;51.508;7.966;2022-07-29T13:36:35;26.20;99.90
6106;DHT22;3083;51.508;7.966;2022-07-29T13:39:04;26.10;99.90
6106;DHT22;3083;51.508;7.966;2022-07-29T13:41:31;26.10;99.90
6106;DHT22;3083;51.508;7.966;2022-07-29T13:43:58;26.00;99.90
6106;DHT22;3083;51.508;7.966;2022-07-29T13:46:25;26.00;99.90
6106;DHT22;3083;51.508;7.966;2022-07-29T13:48:54;26.00;99.90
6106;DHT22;3083;51.508;7.966;2022-07-29T13:51:21;25.90;99.90
6106;DHT22;3083;51.508;7.966;2022-07-29T13:53:49;25.90;99.90
6106;DHT22;3083;51.508;7.966;2022-07-29T13:56:17;25.90;99.90
6106;DHT22;3083;51.508;7.966;2022-07-29T13:58:44;26.00;99.90
6106;DHT22;3083;51.508;7.966;2022-07-29T14:01:11;26.10;99.90
6106;DHT22;3083;51.508;7.966;2022-07-29T14:03:42;26.20;99.90
6106;DHT22;3083;51.508;7.966;2022-07-29T14:06:13;26.30;99.90
6106;DHT22;3083;51.508;7.966;2022-07-29T14:08:40;26.50;99.90
6106;DHT22;3083;51.508;7.966;2022-07-29T14:11:07;26.50;99.90
6106;DHT22;3083;51.508;7.966;2022-07-29T14:13:34;26.60;99.90
6106;DHT22;3083;51.508;7.966;2022-07-29T14:16:04;26.80;99.90
6106;DHT22;3083;51.508;7.966;2022-07-29T14:18:32;26.80;99.90
6106;DHT22;3083;51.508;7.966;2022-07-29T14:20:59;26.80;99.90
6106;DHT22;3083;51.508;7.966;2022-07-29T14:23:30;26.70;99.90
6106;DHT22;3083;51.508;7.966;2022-07-29T14:25:57;26.50;99.90
6106;DHT22;3083;51.508;7.966;2022-07-29T14:28:24;26.40;99.90
6106;DHT22;3083;51.508;7.966;2022-07-29T14:30:51;26.30;99.90
6106;DHT22;3083;51.508;7.966;2022-07-29T14:33:20;26.20;99.90
6106;DHT22;3083;51.508;7.966;2022-07-29T14:35:47;26.10;99.90
6106;DHT22;3083;51.508;7.966;2022-07-29T14:38:15;26.00;99.90
6106;DHT22;3083;51.508;7.966;2022-07-29T14:40:44;25.90;99.90
6106;DHT22;3083;51.508;7.966;2022-07-29T14:43:12;25.80;99.90
6106;DHT22;3083;51.508;7.966;2022-07-29T14:45:39;25.60;99.90
6106;DHT22;3083;51.508;7.966;2022-07-29T14:48:06;25.60;99.90
6106;DHT22;3083;51.508;7.966;2022-07-29T14:50:37;25.50;99.90
6106;DHT22;3083;51.508;7.966;2022-07-29T14:53:04;25.50;99.90
6106;DHT22;3083;51.508;7.966;2022-07-29T14:55:39;25.40;99.90
6106;DHT22;3083;51.508;7.966;2022-07-29T14:58:11;25.30;99.90
6106;DHT22;3083;51.508;7.966;2022-07-29T15:00:38;25.30;99.90
6106;DHT22;3083;51.508;7.966;2022-07-29T15:03:05;25.30;99.90
6106;DHT22;3083;51.508;7.966;2022-07-29T15:05:37;25.40;99.90
6106;DHT22;3083;51.508;7.966;2022-07-29T15:08:04;25.40;99.90
6106;DHT22;3083;51.508;7.966;2022-07-29T15:10:33;25.50;99.90
6106;DHT22;3083;51.508;7.966;2022-07-29T15:13:02;25.50;99.90
6106;DHT22;3083;51.508;7.966;2022-07-29T15:15:31;25.50;99.90
6106;DHT22;3083;51.508;7.966;2022-07-29T15:17:58;25.60;99.90
6106;DHT22;3083;51.508;7.966;2022-07-29T15:20:25;25.60;99.90
6106;DHT22;3083;51.508;7.966;2022-07-29T15:22:52;25.60;99.90
6106;DHT22;3083;51.508;7.966;2022-07-29T15:25:21;25.60;99.90
6106;DHT22;3083;51.508;7.966;2022-07-29T15:27:49;25.50;99.90
6106;DHT22;3083;51.508;7.966;2022-07-29T15:30:17;25.40;99.90
6106;DHT22;3083;51.508;7.966;2022-07-29T15:32:45;25.40;99.90
6106;DHT22;3083;51.508;7.966;2022-07-29T15:35:12;25.40;99.90
6106;DHT22;3083;51.508;7.966;2022-07-29T15:37:41;25.40;99.90
6106;DHT22;3083;51.508;7.966;2022-07-29T15:40:10;25.40;99.90
6106;DHT22;3083;51.508;7.966;2022-07-29T15:42:45;25.40;99.90
6106;DHT22;3083;51.508;7.966;2022-07-29T15:45:14;25.40;99.90
6106;DHT22;3083;51.508;7.966;2022-07-29T15:47:41;25.40;99.90
6106;DHT22;3083;51.508;7.966;2022-07-29T15:50:10;25.30;99.90
6106;DHT22;3083;51.508;7.966;2022-07-29T15:52:40;25.30;99.90
6106;DHT22;3083;51.508;7.966;2022-07-29T15:55:08;25.30;99.90
6106;DHT22;3083;51.508;7.966;2022-07-29T15:57:35;25.20;99.90
6106;DHT22;3083;51.508;7.966;2022-07-29T16:00:03;25.20;99.90
6106;DHT22;3083;51.508;7.966;2022-07-29T16:02:31;25.20;99.90
6106;DHT22;3083;51.508;7.966;2022-07-29T16:04:58;25.20;99.90
6106;DHT22;3083;51.508;7.966;2022-07-29T16:07:28;25.20;99.90
6106;DHT22;3083;51.508;7.966;2022-07-29T16:09:57;25.10;99.90
6106;DHT22;3083;51.508;7.966;2022-07-29T16:12:26;25.10;99.90
6106;DHT22;3083;51.508;7.966;2022-07-29T16:14:53;25.10;99.90
6106;DHT22;3083;51.508;7.966;2022-07-29T16:17:20;25.10;99.90
6106;DHT22;3083;51.508;7.966;2022-07-29T16:19:47;25.10;99.90
6106;DHT22;3083;51.508;7.966;2022-07-29T16:22:14;25.00;99.90
6106;DHT22;3083;51.508;7.966;2022-07-29T16:24:42;25.00;99.90
6106;DHT22;3083;51.508;7.966;2022-07-29T16:27:09;25.10;99.90